Data for 02/16/2006

Time Sea-Level Adjusted Pressure Absolute Pressure Temperature Relative Humidity Dew Point   
(mb) (inHg) (mb) (inHg) (C) (F) (%) (C) (F)
00:05 1016 30 846 24.98 -14.5 5.8 72 -18.5 -1.2
00:10 1016 30 846 24.98 -14.5 5.9 72 -18.6 -1.4
00:15 1016 30 846 24.98 -14.6 5.6 72 -18.6 -1.5
00:20 1016 30 846 24.98 -14.7 5.6 74 -18.3 -0.9
00:25 1016 30 846 24.98 -14.5 5.9 74 -18.1 -0.6
00:30 1016 30 846 24.98 -14.3 6.3 74 -17.9 -0.3
00:35 1017 30.03 846 24.98 -13.9 6.9 73 -17.7 0.1
00:40 1017 30.03 846 24.98 -13.5 7.7 70 -17.9 -0.1
00:45 1017 30.03 846 24.98 -13.6 7.5 69 -18.1 -0.7
00:50 1017 30.03 846 24.98 -13.2 8.3 68 -17.9 -0.3
00:55 1017 30.03 846 24.98 -13.1 8.4 67 -18 -0.4
01:00 1017 30.03 846 24.98 -13 8.5 65 -18.3 -0.9
01:05 1017 30.03 846 24.98 -12.9 8.9 63 -18.5 -1.2
01:10 1017 30.03 846 24.98 -12.8 9 62 -18.6 -1.5
01:15 1017 30.03 846 24.98 -12.7 9.2 64 -18.2 -0.8
01:20 1017 30.03 846 24.98 -12.7 9.1 65 -18 -0.4
01:25 1017 30.03 846 24.98 -12.5 9.4 65 -17.8 -0.1
01:30 1017 30.03 846 24.98 -12.6 9.4 67 -17.5 0.5
01:35 1017 30.03 846 24.98 -12.6 9.3 67 -17.4 0.6
01:40 1017 30.03 846 24.98 -12.6 9.3 69 -17.2 1
01:45 1017 30.03 847 25.01 -12.8 9 71 -16.9 1.5
01:50 1017 30.03 847 25.01 -12.7 9.2 71 -16.8 1.7
01:55 1017 30.03 847 25.01 -12.7 9.2 71 -16.8 1.7
02:00 1017 30.03 847 25.01 -12.6 9.3 72 -16.7 1.9
02:05 1018 30.06 847 25.01 -12.8 9 73 -16.7 1.9
02:10 1018 30.06 847 25.01 -12.8 8.9 74 -16.6 2.2
02:15 1018 30.06 847 25.01 -12.9 8.7 75 -16.5 2.4
02:20 1018 30.06 847 25.01 -12.9 8.8 76 -16.3 2.7
02:25 1018 30.06 847 25.01 -13 8.6 77 -16.2 2.9
02:30 1018 30.06 847 25.01 -13.1 8.4 78 -16.3 2.7
02:35 1018 30.06 847 25.01 -13.1 8.5 78 -16.1 3.1
02:40 1018 30.06 847 25.01 -13.3 8.1 80 -16 3.1
02:45 1018 30.06 847 25.01 -13.3 8.1 81 -16 3.3
02:50 1018 30.06 847 25.01 -13.4 8 82 -15.9 3.4
02:55 1018 30.06 847 25.01 -13.4 8 82 -15.8 3.5
03:00 1018 30.06 847 25.01 -13.4 8 83 -15.6 3.8
03:05 1018 30.06 847 25.01 -13.2 8.2 82 -15.6 3.8
03:10 1018 30.06 847 25.01 -13.4 7.9 84 -15.6 3.9
03:15 1018 30.06 847 25.01 -13.3 8.1 83 -15.6 3.9
03:20 1018 30.06 847 25.01 -13.2 8.2 83 -15.6 4
03:25 1018 30.06 847 25.01 -13.1 8.5 83 -15.4 4.3
03:30 1018 30.06 847 25.01 -13 8.6 82 -15.4 4.3
03:35 1018 30.06 847 25.01 -13.1 8.5 81 -15.7 3.8
03:40 1018 30.06 847 25.01 -13.2 8.2 81 -15.8 3.5
03:45 1018 30.06 847 25.01 -13.4 7.8 81 -16.1 3.1
03:50 1018 30.06 847 25.01 -13.6 7.6 81 -16.2 2.9
03:55 1018 30.06 847 25.01 -13.5 7.8 81 -16.1 3
04:00 1018 30.06 847 25.01 -13.3 8.1 81 -15.9 3.4
04:05 1018 30.06 847 25.01 -13.4 7.9 80 -16.1 3.1
04:10 1018 30.06 847 25.01 -13.5 7.6 80 -16.2 2.8
04:15 1018 30.06 847 25.01 -13.4 7.9 79 -16.2 2.8
04:20 1018 30.06 847 25.01 -13.5 7.6 79 -16.4 2.4
04:25 1018 30.06 847 25.01 -13.6 7.5 80 -16.4 2.5
04:30 1018 30.06 847 25.01 -13.5 7.6 79 -16.5 2.4
04:35 1018 30.06 847 25.01 -13.5 7.8 78 -16.5 2.4
04:40 1018 30.06 847 25.01 -13.5 7.6 79 -16.5 2.4
04:45 1018 30.06 847 25.01 -13.5 7.7 79 -16.5 2.4
04:50 1018 30.06 847 25.01 -13.4 7.9 79 -16.4 2.5
04:55 1018 30.06 848 25.04 -13.2 8.3 77 -16.4 2.5
05:00 1018 30.06 848 25.04 -13 8.6 76 -16.4 2.4
05:05 1018 30.06 848 25.04 -12.9 8.7 74 -16.6 2.1
05:10 1019 30.09 848 25.04 -12.9 8.9 74 -16.6 2.1
05:15 1019 30.09 848 25.04 -12.8 9 74 -16.5 2.3
05:20 1019 30.09 848 25.04 -12.9 8.8 77 -16.1 3.1
05:25 1019 30.09 848 25.04 -13.2 8.2 79 -16.2 2.9
05:30 1019 30.09 848 25.04 -13.5 7.7 80 -16.2 2.8
05:35 1019 30.09 848 25.04 -13.4 7.9 81 -16 3.2
05:40 1019 30.09 848 25.04 -13.5 7.8 81 -16 3.2
05:45 1019 30.09 848 25.04 -13.7 7.4 82 -16.1 3
05:50 1019 30.09 848 25.04 -13.9 6.9 83 -16.2 2.8
05:55 1019 30.09 848 25.04 -14.2 6.4 84 -16.4 2.5
06:00 1019 30.09 848 25.04 -14.2 6.4 85 -16.2 2.8
06:05 1019 30.09 848 25.04 -14.3 6.3 86 -16.2 2.8
06:10 1019 30.09 848 25.04 -14.2 6.4 87 -16 3.2
06:15 1019 30.09 848 25.04 -14.2 6.4 87 -15.9 3.4
06:20 1019 30.09 848 25.04 -14.2 6.4 88 -15.7 3.7
06:25 1019 30.09 848 25.04 -14 6.8 88 -15.7 3.8
06:30 1019 30.09 848 25.04 -14 6.8 88 -15.5 4
06:35 1019 30.09 848 25.04 -14 6.8 81 -16.6 2.2
06:40 1019 30.09 848 25.04 -14 6.8 77 -17.2 1
06:45 1019 30.09 848 25.04 -14.1 6.6 79 -17.1 1.3
06:50 1019 30.09 848 25.04 -14.1 6.5 79 -17.1 1.3
06:55 1019 30.09 848 25.04 -14.2 6.4 84 -16.3 2.6
07:00 1019 30.09 848 25.04 -14.3 6.3 86 -16.2 2.9
07:05 1019 30.09 848 25.04 -14.3 6.3 86 -16.1 2.9
07:10 1019 30.09 848 25.04 -14.1 6.5 86 -16 3.2
07:15 1019 30.09 848 25.04 -14 6.8 87 -15.8 3.6
07:20 1019 30.09 848 25.04 -14.2 6.5 83 -16.4 2.5
07:25 1019 30.09 849 25.07 -14.4 6.2 83 -16.7 1.9
07:30 1019 30.09 849 25.07 -14.4 6 75 -17.9 -0.2
07:35 1019 30.09 849 25.07 -14.6 5.8 70 -18.9 -2.1
07:40 1019 30.09 849 25.07 -14.8 5.3 70 -19.2 -2.6
07:45 1019 30.09 849 25.07 -14.8 5.3 70 -19.2 -2.6
07:50 1019 30.09 849 25.07 -14.8 5.4 69 -19.3 -2.7
07:55 1019 30.09 849 25.07 -14.9 5.3 72 -18.8 -1.9
08:00 1020 30.12 849 25.07 -14.7 5.6 73 -18.4 -1.2
08:05 1020 30.12 849 25.07 -14.8 5.5 66 -19.8 -3.6
08:10 1020 30.12 849 25.07 -14.7 5.5 62 -20.5 -4.9
08:15 1020 30.12 849 25.07 -14.8 5.3 61 -20.8 -5.5
08:20 1020 30.12 849 25.07 -14.9 5.2 59 -21.2 -6.1
08:25 1020 30.12 849 25.07 -15.1 4.9 56 -21.9 -7.5
08:30 1020 30.12 849 25.07 -15.1 4.9 56 -22.1 -7.8
08:35 1020 30.12 849 25.07 -14.8 5.4 56 -21.7 -7
08:40 1020 30.12 849 25.07 -14.7 5.6 55 -21.9 -7.4
08:45 1020 30.12 849 25.07 -14.5 5.9 54 -22 -7.5
08:50 1020 30.12 849 25.07 -14.5 6 56 -21.5 -6.7
08:55 1020 30.12 850 25.1 -14.7 5.5 56 -21.8 -7.2
09:00 1020 30.12 850 25.1 -14.9 5.1 54 -22.2 -8
09:05 1020 30.12 850 25.1 -14.9 5.2 52 -22.6 -8.7
09:10 1021 30.15 850 25.1 -14.8 5.5 49 -23.2 -9.8
09:15 1021 30.15 850 25.1 -14.6 5.8 47 -23.6 -10.4
09:20 1021 30.15 850 25.1 -14.5 5.9 49 -23.1 -9.6
09:25 1021 30.15 850 25.1 -14.4 6.2 47 -23.3 -9.9
09:30 1021 30.15 850 25.1 -14.2 6.5 47 -23.1 -9.6
09:35 1021 30.15 850 25.1 -14.2 6.4 48 -23.1 -9.5
09:40 1021 30.15 850 25.1 -14 6.8 47 -22.9 -9.3
09:45 1021 30.15 850 25.1 -14 6.8 47 -23.1 -9.5
09:50 1021 30.15 850 25.1 -13.8 7.2 44 -23.6 -10.5
09:55 1021 30.15 850 25.1 -13.9 7 43 -23.9 -11
10:00 1021 30.15 850 25.1 -13.8 7.1 45 -23.3 -10
10:05 1021 30.15 850 25.1 -13.6 7.4 43 -23.8 -10.8
10:10 1021 30.15 850 25.1 -13.3 8 43 -23.4 -10.2
10:15 1021 30.15 850 25.1 -13.4 7.9 42 -23.8 -10.9
10:20 1021 30.15 850 25.1 -13.5 7.8 42 -23.7 -10.7
10:25 1021 30.15 850 25.1 -13.4 7.8 43 -23.5 -10.3
10:30 1021 30.15 850 25.1 -13.2 8.2 41 -23.9 -11
10:35 1021 30.15 850 25.1 -13.1 8.4 42 -23.6 -10.4
10:40 1021 30.15 850 25.1 -12.9 8.7 41 -23.8 -10.8
10:45 1021 30.15 850 25.1 -13 8.5 41 -23.6 -10.5
10:50 1021 30.15 850 25.1 -12.9 8.7 45 -22.7 -8.8
10:55 1021 30.15 850 25.1 -12.2 10.1 38 -23.7 -10.6
11:00 1021 30.15 850 25.1 -12.6 9.3 39 -23.9 -11
11:05 1021 30.15 850 25.1 -13 8.6 40 -23.8 -10.9
11:10 1021 30.15 850 25.1 -13.1 8.5 40 -24 -11.1
11:15 1021 30.15 850 25.1 -13.2 8.3 39 -24.3 -11.8
11:20 1021 30.15 850 25.1 -13.5 7.8 40 -24.4 -11.9
11:25 1021 30.15 850 25.1 -13.3 8.1 39 -24.4 -11.9
11:30 1021 30.15 850 25.1 -13.3 8 42 -23.6 -10.5
11:35 1021 30.15 850 25.1 -13.2 8.3 40 -24.2 -11.5
11:40 1021 30.15 850 25.1 -13.4 8 43 -23.4 -10.2
11:45 1021 30.15 850 25.1 -13.4 7.9 43 -23.5 -10.3
11:50 1021 30.15 850 25.1 -13.5 7.8 43 -23.5 -10.4
11:55 1021 30.15 850 25.1 -13.5 7.8 46 -22.9 -9.2
12:00 1021 30.15 850 25.1 -13.6 7.6 45 -23.2 -9.7
12:05 1021 30.15 850 25.1 -13.4 7.8 45 -22.9 -9.3
12:10 1021 30.15 850 25.1 -13.4 7.9 46 -22.6 -8.7
12:15 1021 30.15 850 25.1 -13.5 7.8 45 -23.1 -9.5
12:20 1021 30.15 850 25.1 -13.4 7.9 46 -22.8 -9
12:25 1021 30.15 850 25.1 -13.3 8.1 46 -22.7 -8.8
12:30 1021 30.15 850 25.1 -13.4 7.8 48 -22.2 -8
12:35 1021 30.15 850 25.1 -13.4 7.8 49 -22 -7.6
12:40 1021 30.15 850 25.1 -13.6 7.6 50 -21.9 -7.3
12:45 1021 30.15 850 25.1 -13.6 7.6 51 -21.8 -7.2
12:50 1021 30.15 850 25.1 -13.6 7.5 52 -21.6 -6.8
12:55 1021 30.15 850 25.1 -13.8 7.2 52 -21.5 -6.8
13:00 1021 30.15 850 25.1 -13.6 7.5 53 -21.4 -6.5
13:05 1021 30.15 850 25.1 -14 6.9 55 -21.2 -6.2
13:10 1021 30.15 850 25.1 -13.9 7.1 54 -21.2 -6.2
13:15 1021 30.15 850 25.1 -13.8 7.2 53 -21.4 -6.4
13:20 1021 30.15 850 25.1 -14 6.9 55 -21.2 -6.2
13:25 1021 30.15 850 25.1 -14.1 6.5 55 -21.4 -6.5
13:30 1021 30.15 850 25.1 -14.3 6.2 55 -21.5 -6.6
13:35 1021 30.15 850 25.1 -14.2 6.4 54 -21.5 -6.8
13:40 1021 30.15 850 25.1 -14.3 6.2 55 -21.4 -6.6
13:45 1021 30.15 850 25.1 -14.2 6.4 54 -21.6 -6.9
13:50 1021 30.15 850 25.1 -14.3 6.2 53 -21.9 -7.5
13:55 1021 30.15 850 25.1 -14.3 6.2 52 -22.2 -7.9
14:00 1021 30.15 850 25.1 -14.6 5.8 53 -22.2 -8
14:05 1021 30.15 850 25.1 -14.6 5.8 53 -22.2 -8
14:10 1021 30.15 850 25.1 -14.4 6.2 56 -21.3 -6.3
14:15 1021 30.15 850 25.1 -14.4 6.2 56 -21.3 -6.4
14:20 1021 30.15 850 25.1 -14.4 6.1 58 -21 -5.8
14:25 1021 30.15 850 25.1 -14.6 5.7 58 -21.1 -5.9
14:30 1021 30.15 850 25.1 -14.6 5.7 57 -21.4 -6.6
14:35 1021 30.15 850 25.1 -15.1 4.9 59 -21.4 -6.5
14:40 1021 30.15 850 25.1 -15.2 4.6 60 -21.4 -6.5
14:45 1021 30.15 850 25.1 -15.2 4.6 60 -21.3 -6.4
14:50 1021 30.15 850 25.1 -15.1 4.8 61 -21.1 -6
14:55 1021 30.15 850 25.1 -15.1 4.9 60 -21.3 -6.3
15:00 1021 30.15 850 25.1 -15.1 4.8 61 -21.1 -5.9
15:05 1021 30.15 850 25.1 -15.3 4.5 62 -21 -5.8
15:10 1021 30.15 850 25.1 -15.4 4.3 65 -20.6 -5.2
15:15 1021 30.15 850 25.1 -15.4 4.3 64 -20.8 -5.5
15:20 1021 30.15 850 25.1 -15.3 4.4 64 -20.7 -5.3
15:25 1021 30.15 850 25.1 -15.3 4.4 64 -20.8 -5.4
15:30 1021 30.15 850 25.1 -15.4 4.3 64 -20.8 -5.4
15:35 1021 30.15 850 25.1 -15.6 3.9 64 -20.9 -5.6
15:40 1021 30.15 850 25.1 -15.7 3.8 64 -21.1 -6
15:45 1021 30.15 850 25.1 -15.8 3.5 65 -21.1 -5.9
15:50 1021 30.15 851 25.13 -15.9 3.4 65 -21.1 -5.9
15:55 1021 30.15 851 25.13 -15.9 3.3 65 -21.1 -6
16:00 1021 30.15 851 25.13 -16 3.2 65 -21.1 -6
16:05 1021 30.15 851 25.13 -15.9 3.4 63 -21.3 -6.4
16:10 1022 30.18 851 25.13 -16.1 3.1 63 -21.5 -6.7
16:15 1022 30.18 851 25.13 -15.9 3.4 63 -21.4 -6.6
16:20 1022 30.18 851 25.13 -15.9 3.3 63 -21.5 -6.7
16:25 1022 30.18 851 25.13 -16 3.3 62 -21.7 -7
16:30 1022 30.18 851 25.13 -16.2 2.9 62 -21.9 -7.5
16:35 1022 30.18 851 25.13 -16.4 2.4 61 -22.4 -8.3
16:40 1022 30.18 851 25.13 -16.4 2.5 61 -22.3 -8.1
16:45 1022 30.18 851 25.13 -16.5 2.3 61 -22.4 -8.2
16:50 1022 30.18 851 25.13 -16.6 2.1 61 -22.5 -8.5
16:55 1022 30.18 851 25.13 -16.7 1.9 60 -22.8 -9
17:00 1022 30.18 851 25.13 -16.9 1.7 60 -23 -9.3
17:05 1022 30.18 851 25.13 -16.9 1.7 59 -23.1 -9.5
17:10 1022 30.18 851 25.13 -17 1.5 61 -22.9 -9.2
17:15 1022 30.18 851 25.13 -17 1.3 63 -22.5 -8.5
17:20 1022 30.18 851 25.13 -17.3 0.9 63 -22.8 -9
17:25 1022 30.18 851 25.13 -17.6 0.4 64 -22.8 -9.1
17:30 1022 30.18 852 25.16 -17.8 -0 66 -22.7 -8.9
17:35 1022 30.18 852 25.16 -17.9 -0.1 65 -22.9 -9.2
17:40 1023 30.21 852 25.16 -18.1 -0.5 65 -23.2 -9.8
17:45 1023 30.21 852 25.16 -18.4 -1.1 66 -23.3 -9.9
17:50 1023 30.21 852 25.16 -18.6 -1.4 66 -23.4 -10
17:55 1023 30.21 852 25.16 -18.8 -1.8 65 -23.8 -10.9
18:00 1023 30.21 852 25.16 -18.9 -2 64 -24 -11.3
18:05 1023 30.21 852 25.16 -19.1 -2.3 65 -24.1 -11.3
18:10 1023 30.21 852 25.16 -19.2 -2.6 65 -24.3 -11.7
18:15 1023 30.21 852 25.16 -19.4 -2.9 65 -24.4 -11.9
18:20 1023 30.21 852 25.16 -19.5 -3.1 65 -24.5 -12.2
18:25 1023 30.21 852 25.16 -19.6 -3.3 66 -24.5 -12.2
18:30 1023 30.21 852 25.16 -19.7 -3.5 65 -24.7 -12.5
18:35 1023 30.21 852 25.16 -19.8 -3.7 65 -24.7 -12.5
18:40 1023 30.21 853 25.19 -19.8 -3.7 66 -24.7 -12.4
18:45 1023 30.21 853 25.19 -19.8 -3.7 65 -24.8 -12.7
18:50 1023 30.21 853 25.19 -20 -4.1 65 -25 -13.1
18:55 1024 30.24 853 25.19 -20 -4 65 -25.1 -13.1
19:00 1024 30.24 853 25.19 -20.2 -4.3 65 -25.1 -13.2
19:05 1024 30.24 853 25.19 -20.3 -4.5 65 -25.2 -13.3
19:10 1024 30.24 853 25.19 -20.4 -4.6 65 -25.2 -13.4
19:15 1024 30.24 853 25.19 -20.5 -4.9 66 -25.4 -13.6
19:20 1024 30.24 853 25.19 -20.6 -5.1 66 -25.5 -13.8
19:25 1024 30.24 853 25.19 -20.6 -5.2 66 -25.5 -13.9
19:30 1024 30.24 853 25.19 -20.7 -5.2 65 -25.6 -14.1
19:35 1024 30.24 853 25.19 -20.8 -5.4 65 -25.8 -14.5
19:40 1024 30.24 853 25.19 -20.8 -5.5 64 -25.9 -14.6
19:45 1024 30.24 853 25.19 -20.9 -5.6 63 -26.1 -15
19:50 1024 30.24 853 25.19 -21 -5.7 64 -26 -14.9
19:55 1024 30.24 853 25.19 -21.1 -5.9 64 -26.1 -15
20:00 1024 30.24 853 25.19 -21.1 -6 64 -26.2 -15.1
20:05 1024 30.24 853 25.19 -21.2 -6.1 62 -26.7 -16
20:10 1024 30.24 854 25.22 -21.2 -6.1 62 -26.7 -16.1
20:15 1024 30.24 854 25.22 -21.2 -6.2 61 -26.9 -16.4
20:20 1024 30.24 854 25.22 -21.3 -6.3 61 -27 -16.6
20:25 1024 30.24 854 25.22 -21.5 -6.6 61 -27.2 -16.9
20:30 1025 30.27 854 25.22 -21.5 -6.6 60 -27.2 -17
20:35 1025 30.27 854 25.22 -21.5 -6.8 61 -27.2 -16.9
20:40 1025 30.27 854 25.22 -21.6 -6.9 61 -27.2 -16.9
20:45 1025 30.27 854 25.22 -21.7 -7.1 61 -27.3 -17.2
20:50 1025 30.27 854 25.22 -21.8 -7.3 62 -27.3 -17.1
20:55 1025 30.27 854 25.22 -21.9 -7.5 63 -27.2 -16.9
21:00 1025 30.27 854 25.22 -22 -7.6 64 -27.1 -16.7
21:05 1025 30.27 854 25.22 -22.2 -7.9 64 -27.3 -17.1
21:10 1025 30.27 854 25.22 -22.2 -8 65 -27.2 -17
21:15 1025 30.27 854 25.22 -22.2 -8 64 -27.4 -17.3
21:20 1025 30.27 854 25.22 -22.2 -8 63 -27.6 -17.6
21:25 1025 30.27 854 25.22 -22.2 -8 63 -27.5 -17.5
21:30 1025 30.27 854 25.22 -22.2 -7.9 62 -27.6 -17.7
21:35 1025 30.27 855 25.25 -22.2 -7.9 62 -27.7 -17.8
21:40 1025 30.27 855 25.25 -22.2 -8 60 -27.9 -18.3
21:45 1026 30.3 855 25.25 -22.3 -8.1 62 -27.7 -17.9
21:50 1026 30.3 855 25.25 -22.2 -8 62 -27.6 -17.6
21:55 1026 30.3 855 25.25 -22.3 -8.2 61 -27.9 -18.3
22:00 1026 30.3 855 25.25 -22.4 -8.4 62 -27.8 -18.1
22:05 1026 30.3 855 25.25 -22.4 -8.3 61 -28 -18.4
22:10 1026 30.3 855 25.25 -22.5 -8.4 61 -28.1 -18.6
22:15 1026 30.3 855 25.25 -22.5 -8.4 61 -28.1 -18.6
22:20 1026 30.3 855 25.25 -22.5 -8.4 62 -27.9 -18.3
22:25 1026 30.3 855 25.25 -22.4 -8.4 61 -28 -18.4
22:30 1026 30.3 855 25.25 -22.5 -8.5 61 -28 -18.5
22:35 1026 30.3 855 25.25 -22.5 -8.5 61 -28.1 -18.6
22:40 1026 30.3 856 25.28 -22.5 -8.5 61 -28.1 -18.6
22:45 1026 30.3 856 25.28 -22.6 -8.7 62 -28.1 -18.5
22:50 1026 30.3 856 25.28 -22.7 -8.9 62 -28.2 -18.7
22:55 1026 30.3 856 25.28 -22.7 -8.9 62 -28.2 -18.7
23:00 1026 30.3 856 25.28 -22.8 -9 62 -28.1 -18.6
23:05 1026 30.3 856 25.28 -22.8 -9 63 -28 -18.4
23:10 1026 30.3 856 25.28 -22.8 -9 65 -27.7 -17.9
23:15 1027 30.33 856 25.28 -22.9 -9.2 63 -28 -18.5
23:20 1027 30.33 856 25.28 -23 -9.4 64 -28.1 -18.6
23:25 1027 30.33 856 25.28 -23 -9.4 64 -28.1 -18.6
23:30 1027 30.33 856 25.28 -23 -9.4 64 -28.1 -18.5
23:35 1027 30.33 856 25.28 -23.1 -9.6 61 -28.6 -19.5
23:40 1027 30.33 856 25.28 -23.3 -9.9 61 -28.8 -19.9
23:45 1027 30.33 856 25.28 -23.4 -10.1 63 -28.6 -19.5
23:50 1027 30.33 856 25.28 -23.5 -10.3 63 -28.8 -19.8
23:55 1027 30.33 856 25.28 -23.7 -10.6 63 -29 -20.1
24:00 1027 30.33 856 25.28 -23.7 -10.7 62 -29.1 -20.3